Time;durP1;ratioP1;P1;durP2;ratioP2;P2;SDS_P1;SDS_P2;PMS_P1;PMS_P2;Temp;Humidity;BMP_temperature;BMP_pressure;BME280_temperature;BME280_humidity;BME280_pressure;Samples;Min_cycle;Max_cycle;Signal;HPM_P1;HPM_P2
2021/10/16 00:01:00;;;;;;;3.37;1.47;;;11.00;70.90;;;;;;5083378;28;20020;-80
2021/10/16 00:03:26;;;;;;;3.63;1.67;;;11.00;70.70;;;;;;5063049;28;20041;-80
2021/10/16 00:05:52;;;;;;;4.77;2.17;;;10.90;70.60;;;;;;5067417;28;20020;-80
2021/10/16 00:08:17;;;;;;;3.80;1.93;;;10.90;70.90;;;;;;5070612;28;20032;-81
2021/10/16 00:10:43;;;;;;;2.77;2.00;;;10.90;71.30;;;;;;5060958;28;20032;-81
2021/10/16 00:13:09;;;;;;;3.10;1.87;;;10.90;71.10;;;;;;5089092;28;20370;-80
2021/10/16 00:15:35;;;;;;;3.27;1.80;;;10.90;71.10;;;;;;5073527;28;20017;-80
2021/10/16 00:18:00;;;;;;;3.47;2.27;;;10.90;71.10;;;;;;5084467;28;20036;-80
2021/10/16 00:20:26;;;;;;;3.83;1.90;;;10.90;71.00;;;;;;5082853;28;20020;-80
2021/10/16 00:22:52;;;;;;;3.50;1.93;;;10.90;71.00;;;;;;5066973;28;20032;-80
2021/10/16 00:25:18;;;;;;;5.03;2.20;;;10.90;70.80;;;;;;5087597;28;20020;-80
2021/10/16 00:27:44;;;;;;;3.03;2.03;;;10.90;70.80;;;;;;5085565;28;20039;-80
2021/10/16 00:30:10;;;;;;;4.10;1.77;;;10.90;71.10;;;;;;5085234;28;20071;-80
2021/10/16 00:32:36;;;;;;;3.07;1.60;;;10.90;71.10;;;;;;5085851;28;20513;-80
2021/10/16 00:35:02;;;;;;;3.20;2.07;;;10.80;71.20;;;;;;5085608;28;20040;-80
2021/10/16 00:37:28;;;;;;;2.23;1.67;;;10.80;71.30;;;;;;5084741;28;20017;-79
2021/10/16 00:39:55;;;;;;;7.13;2.00;;;10.70;71.20;;;;;;5074798;28;20035;-80
2021/10/16 00:42:21;;;;;;;5.10;1.90;;;10.70;71.50;;;;;;5070185;28;20040;-80
2021/10/16 00:44:47;;;;;;;5.27;2.07;;;10.80;71.50;;;;;;5083827;28;20028;-80
2021/10/16 00:47:13;;;;;;;2.37;1.80;;;10.80;71.30;;;;;;5094908;28;20089;-80
2021/10/16 00:49:39;;;;;;;2.50;1.67;;;10.70;71.40;;;;;;5074287;28;20055;-80
2021/10/16 00:52:05;;;;;;;4.10;1.70;;;10.70;71.50;;;;;;5094140;28;20058;-80
2021/10/16 00:54:31;;;;;;;3.67;2.13;;;10.70;71.60;;;;;;5077714;28;21642;-80
2021/10/16 00:56:59;;;;;;;9.73;4.43;;;10.60;71.60;;;;;;5066883;28;20016;-80
2021/10/16 00:59:26;;;;;;;6.23;2.60;;;10.60;71.50;;;;;;5074263;28;20038;-80
2021/10/16 01:01:52;;;;;;;3.87;2.43;;;10.60;71.50;;;;;;5064465;28;20047;-80
2021/10/16 01:04:17;;;;;;;9.17;3.77;;;10.60;71.60;;;;;;5099708;28;20028;-80
2021/10/16 01:06:44;;;;;;;4.40;2.43;;;10.60;71.70;;;;;;5089236;28;20035;-80
2021/10/16 01:09:10;;;;;;;3.60;2.60;;;10.60;71.70;;;;;;5084575;28;20020;-80
2021/10/16 01:12:03;;;;;;;4.93;3.00;;;10.60;71.90;;;;;;5079166;28;20027;-80
2021/10/16 01:14:29;;;;;;;2.65;1.70;;;10.50;72.10;;;;;;5057238;28;20043;-80
2021/10/16 01:16:57;;;;;;;3.43;1.83;;;10.40;72.20;;;;;;5067251;28;20115;-80
2021/10/16 01:19:23;;;;;;;2.97;1.87;;;10.40;72.40;;;;;;5068669;28;20078;-80
2021/10/16 01:21:51;;;;;;;3.23;2.03;;;10.30;72.70;;;;;;5088256;28;20370;-80
2021/10/16 01:24:19;;;;;;;2.87;1.63;;;10.40;72.70;;;;;;5091890;28;20032;-80
2021/10/16 01:26:50;;;;;;;2.70;1.70;;;10.50;72.40;;;;;;5093578;28;20036;-80
2021/10/16 01:29:22;;;;;;;3.57;1.67;;;10.50;72.00;;;;;;5065675;28;20052;-80
2021/10/16 01:31:49;;;;;;;2.17;1.60;;;10.50;71.80;;;;;;5064118;28;20040;-80
2021/10/16 01:34:14;;;;;;;5.37;1.67;;;10.50;71.80;;;;;;5065699;28;20036;-80
2021/10/16 01:36:45;;;;;;;3.83;2.10;;;10.50;71.70;;;;;;5063353;28;20021;-80
2021/10/16 01:39:12;;;;;;;4.23;2.00;;;10.50;71.70;;;;;;5064079;28;20097;-80
2021/10/16 01:41:38;;;;;;;3.20;2.10;;;10.40;71.90;;;;;;5080016;28;20128;-80
2021/10/16 01:44:05;;;;;;;2.07;1.53;;;10.30;72.10;;;;;;5063346;28;20116;-79
2021/10/16 01:46:31;;;;;;;3.70;2.13;;;10.30;72.30;;;;;;5061991;28;20510;-80
2021/10/16 01:48:57;;;;;;;2.97;1.60;;;10.30;72.40;;;;;;5064958;28;20023;-80
2021/10/16 01:51:23;;;;;;;2.73;1.53;;;10.30;72.20;;;;;;5066369;28;20483;-80
2021/10/16 01:53:49;;;;;;;6.80;2.37;;;10.30;72.10;;;;;;5067694;28;20041;-80
2021/10/16 01:56:14;;;;;;;6.57;1.97;;;10.30;71.90;;;;;;5063623;28;20024;-80
2021/10/16 01:58:40;;;;;;;3.43;2.17;;;10.30;72.10;;;;;;5064276;28;20024;-80
2021/10/16 02:01:06;;;;;;;3.07;1.83;;;10.20;72.20;;;;;;5066107;28;20025;-80
2021/10/16 02:03:31;;;;;;;3.07;2.00;;;10.30;72.40;;;;;;5066467;28;20036;-80
2021/10/16 02:05:57;;;;;;;2.60;1.70;;;10.30;72.40;;;;;;5061749;28;20490;-80
2021/10/16 02:08:23;;;;;;;4.67;1.53;;;10.30;72.50;;;;;;5067240;28;20024;-80
2021/10/16 02:10:48;;;;;;;2.80;1.23;;;10.40;72.60;;;;;;5062996;28;20071;-80
2021/10/16 02:13:14;;;;;;;3.17;1.83;;;10.30;72.40;;;;;;5061129;28;20094;-80
2021/10/16 02:15:40;;;;;;;3.37;1.73;;;10.30;72.40;;;;;;5071994;28;20060;-80
2021/10/16 02:18:06;;;;;;;3.80;2.20;;;10.30;72.40;;;;;;5071100;28;20469;-78
2021/10/16 02:20:32;;;;;;;5.60;1.97;;;10.30;72.60;;;;;;5065075;28;20021;-79
2021/10/16 02:22:57;;;;;;;4.17;2.20;;;10.30;72.60;;;;;;5063569;28;20024;-78
2021/10/16 02:25:23;;;;;;;4.07;2.30;;;10.30;72.70;;;;;;5065443;28;20082;-81
2021/10/16 02:27:49;;;;;;;4.63;2.77;;;10.30;72.70;;;;;;5074142;28;20024;-78
2021/10/16 02:30:14;;;;;;;4.30;1.97;;;10.20;72.90;;;;;;5069427;28;20095;-79
2021/10/16 02:32:40;;;;;;;4.17;2.10;;;10.20;72.90;;;;;;5068079;28;20021;-79
2021/10/16 02:35:06;;;;;;;10.60;3.23;;;10.20;72.90;;;;;;5076740;28;20090;-79
2021/10/16 02:37:32;;;;;;;4.83;2.10;;;10.20;72.70;;;;;;5058342;28;20032;-78
2021/10/16 02:39:58;;;;;;;3.73;2.20;;;10.20;72.90;;;;;;5065450;28;20029;-79
2021/10/16 02:42:24;;;;;;;4.40;2.60;;;10.10;73.00;;;;;;5067878;28;20115;-80
2021/10/16 02:44:50;;;;;;;4.17;2.27;;;10.10;72.90;;;;;;5063498;28;20076;-79
2021/10/16 02:47:16;;;;;;;4.10;2.40;;;10.10;72.90;;;;;;5065749;28;20387;-79
2021/10/16 02:49:42;;;;;;;4.50;2.93;;;10.10;72.70;;;;;;5061981;28;20108;-80
2021/10/16 02:52:08;;;;;;;3.20;2.10;;;10.10;72.60;;;;;;5062295;28;20040;-79
2021/10/16 02:54:33;;;;;;;3.13;2.13;;;10.10;72.50;;;;;;5065070;28;20491;-79
2021/10/16 02:56:59;;;;;;;4.50;2.20;;;10.10;72.50;;;;;;5063392;28;20111;-80
2021/10/16 02:59:25;;;;;;;3.93;2.60;;;10.10;72.40;;;;;;5070616;28;20116;-79
2021/10/16 03:01:51;;;;;;;5.37;2.40;;;10.00;72.40;;;;;;5069150;28;20412;-79
2021/10/16 03:04:16;;;;;;;4.67;2.40;;;9.90;72.30;;;;;;5066293;28;20308;-79
2021/10/16 03:06:42;;;;;;;4.57;2.20;;;9.90;72.70;;;;;;5056665;28;20036;-80
2021/10/16 03:09:08;;;;;;;3.90;2.63;;;9.90;72.80;;;;;;5070302;28;20064;-79
2021/10/16 03:11:35;;;;;;;5.47;2.63;;;9.90;72.80;;;;;;5061140;28;20503;-79
2021/10/16 03:14:01;;;;;;;3.67;2.53;;;9.90;72.70;;;;;;5066879;28;20111;-79
2021/10/16 03:16:27;;;;;;;5.17;2.03;;;9.90;72.70;;;;;;5067524;28;20028;-80
2021/10/16 03:18:53;;;;;;;6.13;2.43;;;9.90;72.60;;;;;;5062962;28;20686;-79
2021/10/16 03:21:20;;;;;;;3.60;1.87;;;9.90;72.60;;;;;;5062864;28;20040;-79
2021/10/16 03:23:46;;;;;;;5.00;2.00;;;9.90;72.80;;;;;;5061398;28;20040;-79
2021/10/16 03:26:11;;;;;;;3.97;1.93;;;9.90;72.90;;;;;;5060021;28;20581;-80
2021/10/16 03:28:37;;;;;;;4.77;1.90;;;9.90;72.70;;;;;;5067377;28;20028;-79
2021/10/16 03:31:03;;;;;;;3.63;2.10;;;9.80;72.90;;;;;;5067821;28;20031;-80
2021/10/16 03:33:29;;;;;;;3.83;2.13;;;9.80;72.90;;;;;;5086878;28;20550;-80
2021/10/16 03:35:55;;;;;;;3.17;2.00;;;9.90;73.10;;;;;;5068495;28;20048;-80
2021/10/16 03:38:21;;;;;;;4.53;2.37;;;9.90;73.00;;;;;;5064077;28;20039;-79
2021/10/16 03:40:46;;;;;;;3.50;2.53;;;9.90;73.00;;;;;;5081821;28;20089;-79
2021/10/16 03:43:12;;;;;;;3.07;2.13;;;9.90;72.90;;;;;;5079393;28;20470;-79
2021/10/16 03:45:38;;;;;;;6.53;2.40;;;9.90;72.80;;;;;;5086993;28;20064;-80
2021/10/16 03:48:04;;;;;;;5.63;2.80;;;9.90;72.70;;;;;;5096301;28;20024;-79
2021/10/16 03:50:30;;;;;;;3.60;2.27;;;9.80;72.80;;;;;;5087508;28;20043;-79
2021/10/16 03:52:56;;;;;;;5.43;2.70;;;9.80;72.80;;;;;;5063351;28;20032;-79
2021/10/16 03:55:22;;;;;;;3.20;2.30;;;9.90;72.70;;;;;;5094755;28;20133;-80
2021/10/16 03:57:49;;;;;;;3.40;2.17;;;9.80;72.70;;;;;;5097633;28;20025;-79
2021/10/16 04:00:17;;;;;;;4.30;3.00;;;9.80;72.90;;;;;;5088141;28;20043;-79
2021/10/16 04:02:46;;;;;;;4.57;2.60;;;9.80;72.70;;;;;;5093239;28;20023;-79
2021/10/16 04:05:12;;;;;;;4.40;2.93;;;9.70;72.70;;;;;;5090035;28;20020;-79
2021/10/16 04:07:38;;;;;;;4.87;3.37;;;9.70;72.60;;;;;;5075020;28;20039;-79
2021/10/16 04:10:04;;;;;;;4.77;2.70;;;9.70;72.70;;;;;;5083492;28;20078;-79
2021/10/16 04:12:30;;;;;;;5.17;2.53;;;9.60;72.60;;;;;;5084335;28;20050;-80
2021/10/16 04:14:56;;;;;;;8.87;2.70;;;9.60;72.50;;;;;;5103463;28;20052;-79
2021/10/16 04:17:21;;;;;;;4.97;3.20;;;9.60;72.60;;;;;;5094843;28;20028;-80
2021/10/16 04:19:47;;;;;;;5.03;3.30;;;9.50;72.90;;;;;;5099562;28;20516;-79
2021/10/16 04:22:13;;;;;;;5.47;4.00;;;9.60;73.00;;;;;;5098105;28;20042;-79
2021/10/16 04:24:38;;;;;;;6.00;2.97;;;9.60;73.10;;;;;;5087734;28;20526;-79
2021/10/16 04:27:04;;;;;;;4.23;3.20;;;9.60;73.10;;;;;;5087620;28;20116;-80
2021/10/16 04:29:30;;;;;;;6.87;3.70;;;9.60;73.10;;;;;;5091481;28;20066;-80
2021/10/16 04:31:55;;;;;;;9.00;3.97;;;9.70;72.80;;;;;;5067133;28;20077;-80
2021/10/16 04:34:22;;;;;;;6.40;2.87;;;9.70;72.70;;;;;;5095061;28;20066;-79
2021/10/16 04:36:47;;;;;;;6.07;3.50;;;9.60;72.10;;;;;;5074800;28;20024;-80
2021/10/16 04:39:13;;;;;;;4.90;3.47;;;9.60;72.50;;;;;;5077038;28;20020;-80
2021/10/16 04:41:39;;;;;;;7.97;4.00;;;9.60;72.70;;;;;;5099110;28;20020;-80
2021/10/16 04:44:05;;;;;;;7.60;4.57;;;9.60;72.80;;;;;;5096575;28;20024;-80
2021/10/16 04:46:31;;;;;;;7.17;3.70;;;9.50;72.80;;;;;;5095942;28;20024;-80
2021/10/16 04:48:57;;;;;;;7.50;3.50;;;9.50;73.20;;;;;;5076193;28;20057;-79
2021/10/16 04:51:23;;;;;;;9.13;5.37;;;9.50;72.90;;;;;;5077674;28;20031;-79
2021/10/16 04:53:49;;;;;;;4.67;3.43;;;9.50;72.80;;;;;;5085951;28;20571;-80
2021/10/16 04:56:14;;;;;;;8.90;4.93;;;9.50;73.10;;;;;;5095275;28;20098;-79
2021/10/16 04:58:40;;;;;;;7.13;3.77;;;9.40;72.70;;;;;;5073539;28;20740;-80
2021/10/16 05:01:06;;;;;;;6.00;3.50;;;9.40;72.70;;;;;;5092797;28;20016;-79
2021/10/16 05:03:32;;;;;;;6.73;4.17;;;9.30;72.90;;;;;;5098387;28;20074;-80
2021/10/16 05:05:57;;;;;;;7.70;4.57;;;9.40;73.00;;;;;;5079306;28;20033;-79
2021/10/16 05:08:23;;;;;;;7.03;4.20;;;9.40;72.90;;;;;;5076372;28;20069;-79
2021/10/16 05:10:50;;;;;;;8.00;5.40;;;9.40;72.70;;;;;;5094455;28;20075;-79
2021/10/16 05:13:16;;;;;;;5.97;4.10;;;9.40;72.80;;;;;;5092888;28;20401;-79
2021/10/16 05:15:42;;;;;;;6.83;3.60;;;9.40;72.70;;;;;;5073693;28;20028;-79
2021/10/16 05:18:07;;;;;;;10.93;7.50;;;9.50;73.10;;;;;;5075263;28;20020;-79
2021/10/16 05:20:33;;;;;;;16.83;9.97;;;9.50;72.30;;;;;;5091122;28;20062;-79
2021/10/16 05:22:59;;;;;;;44.30;24.17;;;9.40;72.30;;;;;;5075477;28;20073;-79
2021/10/16 05:25:25;;;;;;;27.20;13.63;;;9.50;72.40;;;;;;5074731;28;20179;-79
2021/10/16 05:27:50;;;;;;;7.63;4.90;;;9.50;72.30;;;;;;5072236;28;20020;-79
2021/10/16 05:30:19;;;;;;;5.93;4.20;;;9.50;72.40;;;;;;5065189;28;20071;-79
2021/10/16 05:32:45;;;;;;;9.97;5.43;;;9.40;72.20;;;;;;5068503;28;20063;-79
2021/10/16 05:35:11;;;;;;;7.83;5.47;;;9.40;72.20;;;;;;5073404;28;20064;-80
2021/10/16 05:37:37;;;;;;;10.43;6.27;;;9.40;72.90;;;;;;5071851;28;20017;-80
2021/10/16 05:40:03;;;;;;;11.17;5.17;;;9.40;72.40;;;;;;5071108;28;20040;-80
2021/10/16 05:42:29;;;;;;;7.80;5.00;;;9.30;72.50;;;;;;5072030;28;20163;-80
2021/10/16 05:44:55;;;;;;;10.00;5.20;;;9.30;72.80;;;;;;5073701;28;20446;-79
2021/10/16 05:47:21;;;;;;;10.77;6.70;;;9.30;72.90;;;;;;5078276;28;20020;-79
2021/10/16 05:49:46;;;;;;;30.07;15.63;;;9.40;73.00;;;;;;5071880;28;20033;-79
2021/10/16 05:52:12;;;;;;;23.10;10.20;;;9.40;73.10;;;;;;5070131;28;20791;-80
2021/10/16 05:54:38;;;;;;;13.87;8.10;;;9.40;73.10;;;;;;5067610;28;20082;-79
2021/10/16 05:57:04;;;;;;;37.50;18.93;;;9.50;73.00;;;;;;5074944;28;20467;-80
2021/10/16 05:59:30;;;;;;;27.47;12.73;;;9.50;73.00;;;;;;5071737;28;20599;-79
2021/10/16 06:01:56;;;;;;;15.77;9.63;;;9.50;73.00;;;;;;5072627;28;20111;-79
2021/10/16 06:04:21;;;;;;;18.67;10.60;;;9.50;73.10;;;;;;5077182;28;20055;-80
2021/10/16 06:06:47;;;;;;;21.53;9.37;;;9.50;73.50;;;;;;5073207;28;20108;-79
2021/10/16 06:09:14;;;;;;;13.77;6.73;;;9.50;73.70;;;;;;5072593;28;20041;-80
2021/10/16 06:11:40;;;;;;;10.60;6.27;;;9.60;73.50;;;;;;5071346;28;20455;-80
2021/10/16 06:14:05;;;;;;;14.97;6.40;;;9.60;73.60;;;;;;5070291;28;20033;-80
2021/10/16 06:16:31;;;;;;;8.43;5.87;;;9.60;73.70;;;;;;5071203;28;20616;-80
2021/10/16 06:19:02;;;;;;;8.37;5.47;;;9.70;74.00;;;;;;5065975;28;20021;-79
2021/10/16 06:21:27;;;;;;;8.13;5.67;;;9.70;73.90;;;;;;5074399;28;20044;-79
2021/10/16 06:23:53;;;;;;;8.17;5.07;;;9.70;73.80;;;;;;5072686;28;20059;-79
2021/10/16 06:26:19;;;;;;;10.57;5.60;;;9.70;73.80;;;;;;5069251;28;20028;-79
2021/10/16 06:28:44;;;;;;;11.40;5.67;;;9.70;73.70;;;;;;5085008;28;20090;-79
2021/10/16 06:31:10;;;;;;;9.97;5.83;;;9.70;73.70;;;;;;5067030;28;20029;-80
2021/10/16 06:33:36;;;;;;;8.10;5.63;;;9.70;73.70;;;;;;5062647;28;20028;-79
2021/10/16 06:36:02;;;;;;;11.03;7.20;;;9.70;74.00;;;;;;5064443;28;20844;-80
2021/10/16 06:38:27;;;;;;;13.10;8.57;;;9.70;74.00;;;;;;5070594;28;20020;-79
2021/10/16 06:40:53;;;;;;;8.07;5.77;;;9.80;73.80;;;;;;5074620;28;20052;-79
2021/10/16 06:43:19;;;;;;;9.17;6.43;;;9.70;73.70;;;;;;5069920;28;20020;-80
2021/10/16 06:45:45;;;;;;;10.53;6.90;;;9.80;73.80;;;;;;5082943;28;20044;-80
2021/10/16 06:48:10;;;;;;;9.23;6.57;;;9.80;73.80;;;;;;5063987;28;20020;-80
2021/10/16 06:50:36;;;;;;;9.27;5.93;;;9.80;74.00;;;;;;5078169;28;20021;-79
2021/10/16 06:53:02;;;;;;;8.50;5.00;;;9.90;74.00;;;;;;5071207;28;20030;-80
2021/10/16 06:55:28;;;;;;;9.33;5.57;;;9.90;73.90;;;;;;5073610;28;20017;-80
2021/10/16 06:57:54;;;;;;;10.93;5.97;;;9.90;73.80;;;;;;5067407;28;20036;-80
2021/10/16 07:00:19;;;;;;;10.80;6.53;;;9.90;73.80;;;;;;5073074;28;20494;-80
2021/10/16 07:02:45;;;;;;;10.53;5.77;;;9.90;73.70;;;;;;5067515;28;20024;-80
2021/10/16 07:05:13;;;;;;;11.80;5.53;;;9.90;73.70;;;;;;5078381;28;20056;-80
2021/10/16 07:07:39;;;;;;;10.67;6.43;;;9.90;73.90;;;;;;5068745;28;20028;-80
2021/10/16 07:10:05;;;;;;;9.43;6.57;;;9.90;74.00;;;;;;5071827;28;20107;-80
2021/10/16 07:12:33;;;;;;;10.83;6.70;;;9.90;73.90;;;;;;5072339;28;20081;-79
2021/10/16 07:15:04;;;;;;;16.00;6.83;;;9.90;73.90;;;;;;5063859;28;20031;-79
2021/10/16 07:17:30;;;;;;;16.23;7.03;;;10.00;74.00;;;;;;5064457;28;20107;-80
2021/10/16 07:19:56;;;;;;;13.57;6.20;;;10.00;73.90;;;;;;5066412;28;20111;-80
2021/10/16 07:22:22;;;;;;;10.63;6.60;;;10.00;74.00;;;;;;5067860;28;20028;-79
2021/10/16 07:24:48;;;;;;;8.33;5.60;;;10.10;74.00;;;;;;5066838;28;20028;-79
2021/10/16 07:27:15;;;;;;;9.93;6.17;;;10.10;74.10;;;;;;5068745;28;20021;-79
2021/10/16 07:29:41;;;;;;;9.20;6.10;;;10.10;74.00;;;;;;5081046;28;20478;-80
2021/10/16 07:32:07;;;;;;;11.17;6.43;;;10.10;74.00;;;;;;5087726;28;20425;-79
2021/10/16 07:34:33;;;;;;;10.17;6.30;;;10.20;74.20;;;;;;5070907;28;20032;-80
2021/10/16 07:36:59;;;;;;;9.93;7.60;;;10.30;74.10;;;;;;5089666;28;20028;-80
2021/10/16 07:39:24;;;;;;;13.63;9.50;;;10.40;74.00;;;;;;5080706;28;20355;-79
2021/10/16 07:41:50;;;;;;;18.30;10.03;;;10.40;73.80;;;;;;5086090;28;20051;-80
2021/10/16 07:44:16;;;;;;;16.90;8.70;;;10.40;74.10;;;;;;5090698;28;20024;-80
2021/10/16 07:46:43;;;;;;;17.43;10.40;;;10.50;73.80;;;;;;5076535;28;20379;-80
2021/10/16 07:49:10;;;;;;;16.03;10.43;;;10.50;73.80;;;;;;5071821;28;20146;-80
2021/10/16 07:51:36;;;;;;;14.03;9.10;;;10.40;73.90;;;;;;5070884;28;20027;-80
2021/10/16 07:54:01;;;;;;;12.83;8.10;;;10.40;74.00;;;;;;5068658;28;20494;-80
2021/10/16 07:56:27;;;;;;;15.13;9.27;;;10.50;74.00;;;;;;5068499;28;20111;-80
2021/10/16 07:58:53;;;;;;;14.70;8.73;;;10.50;73.90;;;;;;5083868;28;20025;-80
2021/10/16 08:01:19;;;;;;;14.60;7.87;;;10.60;73.80;;;;;;5082867;28;20111;-80
2021/10/16 08:03:45;;;;;;;11.77;6.63;;;10.60;73.60;;;;;;5085922;28;20042;-80
2021/10/16 08:06:10;;;;;;;10.40;6.50;;;10.60;73.60;;;;;;5063206;28;20119;-80
2021/10/16 08:08:36;;;;;;;10.33;6.60;;;10.70;73.60;;;;;;5081610;28;20031;-80
2021/10/16 08:11:02;;;;;;;14.63;8.87;;;11.50;72.80;;;;;;5089983;28;20112;-80
2021/10/16 08:13:29;;;;;;;13.98;6.60;;;13.90;66.30;;;;;;5083011;28;20070;-81
2021/10/16 08:15:56;;;;;;;8.20;5.47;;;16.40;58.70;;;;;;5088470;28;20026;-80
2021/10/16 08:18:22;;;;;;;7.50;6.00;;;17.10;57.10;;;;;;5085306;28;20120;-81
2021/10/16 08:20:49;;;;;;;8.48;5.38;;;16.40;58.40;;;;;;5066789;28;20085;-80
2021/10/16 08:23:15;;;;;;;10.65;5.10;;;15.50;60.00;;;;;;5084715;28;20017;-80
2021/10/16 08:25:40;;;;;;;6.78;4.30;;;15.00;61.40;;;;;;5082763;28;20163;-80
2021/10/16 08:28:08;;;;;;;6.50;4.63;;;14.80;61.80;;;;;;5066442;28;20048;-79
2021/10/16 08:30:34;;;;;;;7.43;4.85;;;14.60;62.60;;;;;;5065732;28;20031;-80
2021/10/16 08:33:00;;;;;;;9.75;5.60;;;14.40;63.30;;;;;;5089075;28;20360;-80
2021/10/16 08:35:25;;;;;;;7.43;5.45;;;14.10;64.00;;;;;;5069244;28;20042;-80
2021/10/16 08:37:51;;;;;;;9.47;5.73;;;14.00;64.50;;;;;;5086788;28;20030;-80
2021/10/16 08:40:17;;;;;;;12.35;8.43;;;14.00;64.80;;;;;;5083387;28;20024;-80
2021/10/16 08:42:42;;;;;;;7.77;5.63;;;13.90;64.80;;;;;;5064999;28;20051;-80
2021/10/16 08:45:08;;;;;;;9.43;5.07;;;13.80;64.90;;;;;;5089118;28;20052;-80
2021/10/16 08:47:36;;;;;;;10.82;7.68;;;13.70;65.30;;;;;;5088911;28;20072;-80
2021/10/16 08:50:04;;;;;;;8.77;5.70;;;13.90;65.40;;;;;;5089873;28;20386;-79
2021/10/16 08:52:30;;;;;;;8.43;5.10;;;14.00;64.60;;;;;;5090881;28;20628;-80
2021/10/16 08:54:59;;;;;;;12.80;6.40;;;13.90;63.60;;;;;;5086949;28;20144;-80
2021/10/16 08:57:32;;;;;;;8.27;5.47;;;13.90;64.30;;;;;;5094156;28;20082;-80
2021/10/16 08:59:58;;;;;;;7.23;4.70;;;14.00;64.30;;;;;;5090974;28;20702;-80
2021/10/16 09:02:36;;;;;;;8.30;5.07;;;14.20;64.00;;;;;;5081286;28;20059;-80
2021/10/16 09:05:12;;;;;;;5.23;3.93;;;14.60;63.00;;;;;;5072267;28;20032;-80
2021/10/16 09:07:38;;;;;;;6.75;4.55;;;15.00;61.30;;;;;;5092861;28;20036;-81
2021/10/16 09:10:23;;;;;;;6.97;4.97;;;15.50;60.50;;;;;;5096416;28;20118;-81
2021/10/16 09:12:51;;;;;;;7.15;4.60;;;16.20;58.70;;;;;;5089953;28;20481;-81
2021/10/16 09:15:24;;;;;;;8.80;4.65;;;16.60;58.10;;;;;;5056578;28;20035;-80
2021/10/16 09:18:03;;;;;;;7.88;4.95;;;17.00;57.20;;;;;;5086020;28;20028;-80
2021/10/16 09:20:33;;;;;;;5.45;4.35;;;17.50;57.00;;;;;;5063531;28;20016;-80
2021/10/16 09:23:07;;;;;;;5.72;4.88;;;17.60;57.00;;;;;;5088986;28;20036;-80
2021/10/16 09:25:32;;;;;;;6.25;4.78;;;17.70;57.30;;;;;;5094080;28;20029;-81
2021/10/16 09:28:19;;;;;;;6.95;4.50;;;17.70;58.10;;;;;;5074509;28;20145;-81
2021/10/16 09:30:46;;;;;;;6.68;4.97;;;18.10;57.60;;;;;;5043757;28;20042;-81
2021/10/16 09:33:12;;;;;;;7.05;4.60;;;18.10;57.90;;;;;;5032601;28;20045;-80
2021/10/16 09:35:37;;;;;;;4.45;3.72;;;18.30;57.70;;;;;;5042623;28;20017;-80
2021/10/16 09:38:03;;;;;;;5.22;4.72;;;18.30;56.10;;;;;;5051694;28;20024;-80
2021/10/16 09:40:42;;;;;;;5.35;4.53;;;18.20;55.40;;;;;;5049037;28;20538;-80
2021/10/16 09:43:18;;;;;;;5.20;4.35;;;18.20;54.40;;;;;;5035085;28;20025;-80
2021/10/16 09:45:45;;;;;;;6.82;4.55;;;18.00;54.40;;;;;;5041805;28;20070;-80
2021/10/16 09:48:13;;;;;;;4.90;4.40;;;17.90;54.80;;;;;;5049229;28;20057;-80
2021/10/16 09:50:59;;;;;;;6.43;4.80;;;17.80;54.30;;;;;;5049838;28;20020;-80
2021/10/16 09:53:25;;;;;;;8.35;5.10;;;17.70;53.70;;;;;;5044465;28;20033;-80
2021/10/16 09:55:51;;;;;;;11.43;6.05;;;17.50;53.90;;;;;;5050456;28;20053;-81
2021/10/16 09:58:18;;;;;;;7.28;4.82;;;17.40;53.70;;;;;;5049817;28;20044;-80
2021/10/16 10:00:44;;;;;;;7.47;5.07;;;17.30;53.70;;;;;;5040434;28;20433;-80
2021/10/16 10:03:13;;;;;;;6.90;5.25;;;17.20;53.80;;;;;;5044440;28;20112;-80
2021/10/16 10:05:41;;;;;;;6.53;5.30;;;17.10;53.50;;;;;;5046107;28;20432;-80
2021/10/16 10:08:06;;;;;;;6.00;4.85;;;17.00;53.60;;;;;;5048901;28;20427;-80
2021/10/16 10:10:32;;;;;;;7.10;5.40;;;16.90;53.60;;;;;;5048341;28;20033;-80
2021/10/16 10:12:59;;;;;;;6.90;5.75;;;17.00;53.60;;;;;;5047024;28;20025;-81
2021/10/16 10:15:25;;;;;;;6.00;5.32;;;17.00;53.20;;;;;;5047068;28;20052;-81
2021/10/16 10:17:51;;;;;;;6.15;5.10;;;17.00;52.90;;;;;;5045954;28;20668;-80
2021/10/16 10:20:18;;;;;;;8.80;5.40;;;16.90;52.90;;;;;;5047338;28;20392;-80
2021/10/16 10:22:44;;;;;;;7.97;5.30;;;16.90;52.80;;;;;;5043487;28;21297;-80
2021/10/16 10:25:19;;;;;;;8.57;4.43;;;16.80;52.80;;;;;;5045321;28;20028;-80
2021/10/16 10:27:46;;;;;;;7.50;5.35;;;16.90;52.80;;;;;;5046014;28;20056;-80
2021/10/16 10:30:42;;;;;;;6.47;5.50;;;16.90;53.00;;;;;;5066021;28;20339;-80
2021/10/16 10:33:19;;;;;;;6.65;5.60;;;17.10;53.00;;;;;;5051560;28;20037;-80
2021/10/16 10:35:57;;;;;;;8.32;6.60;;;17.00;52.70;;;;;;5074097;28;20020;-79
2021/10/16 10:38:30;;;;;;;9.20;5.88;;;17.00;53.10;;;;;;5069472;28;20064;-80
2021/10/16 10:40:55;;;;;;;10.70;6.47;;;17.10;52.90;;;;;;5064929;28;20343;-81
2021/10/16 10:43:54;;;;;;;7.78;5.55;;;17.10;52.70;;;;;;5064835;28;20031;-80
2021/10/16 10:46:38;;;;;;;7.10;5.35;;;17.10;53.10;;;;;;5032262;28;20410;-81
2021/10/16 10:49:09;;;;;;;13.68;9.20;;;17.30;53.30;;;;;;5060304;28;20099;-80
2021/10/16 10:51:37;;;;;;;13.55;7.55;;;17.40;53.20;;;;;;5073699;28;20028;-80
2021/10/16 10:54:13;;;;;;;7.38;5.45;;;17.50;53.00;;;;;;5076754;28;20025;-81
2021/10/16 10:56:41;;;;;;;6.43;5.18;;;17.50;52.80;;;;;;5068318;28;20066;-81
2021/10/16 10:59:11;;;;;;;8.30;5.47;;;17.60;52.70;;;;;;5059953;28;20031;-80
2021/10/16 11:01:52;;;;;;;9.65;7.05;;;17.70;52.40;;;;;;5065688;28;20024;-81
2021/10/16 11:04:40;;;;;;;11.80;6.75;;;17.80;52.50;;;;;;5066999;28;20098;-81
2021/10/16 11:07:11;;;;;;;10.70;6.28;;;17.90;52.10;;;;;;5068830;28;20028;-81
2021/10/16 11:09:38;;;;;;;17.13;11.18;;;18.00;52.20;;;;;;5072746;28;20035;-80
2021/10/16 11:12:05;;;;;;;22.48;13.55;;;18.00;52.20;;;;;;5065917;28;20070;-80
2021/10/16 11:14:39;;;;;;;12.32;8.52;;;18.10;52.70;;;;;;5070970;28;20056;-81
2021/10/16 11:17:08;;;;;;;26.77;16.25;;;18.20;51.80;;;;;;5074826;28;20081;-81
2021/10/16 11:19:52;;;;;;;13.52;8.98;;;18.20;51.30;;;;;;5070289;28;20048;-81
2021/10/16 11:22:19;;;;;;;17.60;10.75;;;18.10;51.60;;;;;;5069027;28;20491;-81
2021/10/16 11:24:46;;;;;;;11.00;8.10;;;18.20;51.90;;;;;;5069582;28;20750;-80
2021/10/16 11:27:11;;;;;;;13.25;9.85;;;18.20;52.50;;;;;;5071248;28;20032;-80
2021/10/16 11:29:39;;;;;;;16.73;13.00;;;18.20;51.80;;;;;;5085674;28;20062;-81
2021/10/16 11:32:11;;;;;;;8.55;7.38;;;18.30;51.70;;;;;;5074959;28;20077;-81
2021/10/16 11:34:37;;;;;;;8.60;7.00;;;18.40;51.60;;;;;;5074603;28;20123;-80
2021/10/16 11:37:03;;;;;;;8.77;6.47;;;18.40;51.00;;;;;;5087691;28;20823;-81
2021/10/16 11:39:29;;;;;;;10.50;6.47;;;18.30;51.50;;;;;;5085957;28;20020;-81
2021/10/16 11:41:56;;;;;;;10.27;6.05;;;18.30;51.60;;;;;;5076262;28;20028;-81
2021/10/16 11:44:22;;;;;;;8.95;6.70;;;18.40;51.50;;;;;;5090169;28;20041;-81
2021/10/16 11:47:04;;;;;;;10.95;8.20;;;18.50;51.40;;;;;;5090722;28;20024;-82
2021/10/16 11:49:30;;;;;;;8.20;6.38;;;18.40;50.90;;;;;;5086834;28;20052;-80
2021/10/16 11:51:56;;;;;;;9.25;6.22;;;18.40;51.50;;;;;;5088255;28;20067;-81
2021/10/16 11:54:22;;;;;;;12.75;7.28;;;18.50;51.80;;;;;;5091762;28;20055;-81
2021/10/16 11:56:58;;;;;;;10.25;6.82;;;18.50;51.40;;;;;;5097779;28;20073;-81
2021/10/16 11:59:24;;;;;;;11.25;7.57;;;18.70;51.50;;;;;;5072699;28;20485;-82
2021/10/16 12:01:50;;;;;;;11.02;8.38;;;18.70;51.30;;;;;;5077796;28;20028;-81
2021/10/16 12:04:16;;;;;;;13.80;9.35;;;18.70;51.10;;;;;;5072791;28;20486;-80
2021/10/16 12:06:42;;;;;;;13.73;9.00;;;18.70;51.10;;;;;;5092205;28;20035;-81
2021/10/16 12:09:12;;;;;;;16.80;12.38;;;18.70;51.00;;;;;;5086107;28;20024;-81
2021/10/16 12:11:39;;;;;;;16.83;10.77;;;18.70;50.70;;;;;;5085223;28;20024;-81
2021/10/16 12:14:12;;;;;;;16.38;10.27;;;18.70;50.60;;;;;;5088602;28;20036;-81
2021/10/16 12:16:46;;;;;;;21.63;14.50;;;18.80;50.40;;;;;;5088824;28;20039;-81
2021/10/16 12:19:13;;;;;;;13.38;10.05;;;18.80;50.40;;;;;;5066994;28;20062;-81
2021/10/16 12:21:52;;;;;;;17.30;10.65;;;18.90;50.70;;;;;;5079275;28;20060;-82
2021/10/16 12:24:25;;;;;;;15.75;12.27;;;18.90;50.60;;;;;;5092531;28;21862;-82
2021/10/16 12:27:09;;;;;;;14.05;11.15;;;18.90;50.20;;;;;;5093893;28;20969;-81
2021/10/16 12:29:39;;;;;;;16.85;10.13;;;18.90;50.30;;;;;;5066256;28;20498;-81
2021/10/16 12:32:07;;;;;;;12.85;9.45;;;18.90;50.40;;;;;;5071087;28;20328;-81
2021/10/16 12:34:34;;;;;;;19.70;14.32;;;18.80;50.40;;;;;;5074254;28;20499;-80
2021/10/16 12:37:22;;;;;;;13.32;9.63;;;18.90;50.00;;;;;;5055047;28;20104;-81
2021/10/16 12:39:49;;;;;;;15.48;10.70;;;18.80;50.10;;;;;;5067542;28;20028;-81
2021/10/16 12:42:26;;;;;;;18.52;11.50;;;18.80;50.20;;;;;;5069183;28;20028;-81
2021/10/16 12:44:54;;;;;;;14.48;9.35;;;18.80;49.80;;;;;;5069056;28;20028;-81
2021/10/16 12:47:25;;;;;;;17.15;11.07;;;18.70;49.80;;;;;;5073280;28;20050;-81